sensor_id;sensor_type;location;lat;lon;timestamp;P1;durP1;ratioP1;P2;durP2;ratioP2
6027;SDS011;3042;43.194;27.646;2022-11-23T00:00:39;118.93;;;90.70;;
6027;SDS011;3042;43.194;27.646;2022-11-23T00:03:11;94.60;;;87.70;;
6027;SDS011;3042;43.194;27.646;2022-11-23T00:05:41;97.97;;;89.87;;
6027;SDS011;3042;43.194;27.646;2022-11-23T00:08:11;99.60;;;90.77;;
6027;SDS011;3042;43.194;27.646;2022-11-23T00:10:48;99.40;;;91.90;;
6027;SDS011;3042;43.194;27.646;2022-11-23T00:13:32;95.87;;;87.23;;
6027;SDS011;3042;43.194;27.646;2022-11-23T00:16:12;94.93;;;87.87;;
6027;SDS011;3042;43.194;27.646;2022-11-23T00:18:45;100.20;;;91.93;;
6027;SDS011;3042;43.194;27.646;2022-11-23T00:21:21;98.57;;;87.57;;
6027;SDS011;3042;43.194;27.646;2022-11-23T00:23:56;90.67;;;83.43;;
6027;SDS011;3042;43.194;27.646;2022-11-23T00:26:33;95.03;;;86.20;;
6027;SDS011;3042;43.194;27.646;2022-11-23T00:29:02;102.20;;;91.70;;
6027;SDS011;3042;43.194;27.646;2022-11-23T00:31:37;97.00;;;89.40;;
6027;SDS011;3042;43.194;27.646;2022-11-23T00:34:12;98.63;;;86.30;;
6027;SDS011;3042;43.194;27.646;2022-11-23T00:36:45;89.30;;;82.27;;
6027;SDS011;3042;43.194;27.646;2022-11-23T00:39:17;92.57;;;85.57;;
6027;SDS011;3042;43.194;27.646;2022-11-23T00:41:51;92.93;;;86.33;;
6027;SDS011;3042;43.194;27.646;2022-11-23T00:44:22;89.33;;;82.43;;
6027;SDS011;3042;43.194;27.646;2022-11-23T00:46:57;93.17;;;84.87;;
6027;SDS011;3042;43.194;27.646;2022-11-23T00:49:30;94.20;;;85.90;;
6027;SDS011;3042;43.194;27.646;2022-11-23T00:52:06;91.57;;;82.97;;
6027;SDS011;3042;43.194;27.646;2022-11-23T00:54:34;164.33;;;92.10;;
6027;SDS011;3042;43.194;27.646;2022-11-23T00:57:05;109.33;;;77.23;;
6027;SDS011;3042;43.194;27.646;2022-11-23T00:59:36;104.20;;;80.47;;
6027;SDS011;3042;43.194;27.646;2022-11-23T01:02:07;215.60;;;92.57;;
6027;SDS011;3042;43.194;27.646;2022-11-23T01:04:35;156.73;;;76.77;;
6027;SDS011;3042;43.194;27.646;2022-11-23T01:07:05;98.97;;;78.07;;
6027;SDS011;3042;43.194;27.646;2022-11-23T01:09:32;109.80;;;82.50;;
6027;SDS011;3042;43.194;27.646;2022-11-23T01:12:00;199.23;;;87.70;;
6027;SDS011;3042;43.194;27.646;2022-11-23T01:14:29;378.20;;;107.43;;
6027;SDS011;3042;43.194;27.646;2022-11-23T01:16:56;284.87;;;106.90;;
6027;SDS011;3042;43.194;27.646;2022-11-23T01:19:28;294.87;;;109.93;;
6027;SDS011;3042;43.194;27.646;2022-11-23T01:21:57;265.47;;;100.43;;
6027;SDS011;3042;43.194;27.646;2022-11-23T01:24:24;225.03;;;100.27;;
6027;SDS011;3042;43.194;27.646;2022-11-23T01:26:53;238.37;;;100.13;;
6027;SDS011;3042;43.194;27.646;2022-11-23T01:29:22;224.73;;;101.10;;
6027;SDS011;3042;43.194;27.646;2022-11-23T01:31:51;231.33;;;98.37;;
6027;SDS011;3042;43.194;27.646;2022-11-23T01:34:20;264.50;;;103.40;;
6027;SDS011;3042;43.194;27.646;2022-11-23T01:36:49;292.83;;;102.03;;
6027;SDS011;3042;43.194;27.646;2022-11-23T01:39:17;268.33;;;104.30;;
6027;SDS011;3042;43.194;27.646;2022-11-23T01:41:44;219.30;;;98.50;;
6027;SDS011;3042;43.194;27.646;2022-11-23T01:44:22;189.60;;;98.73;;
6027;SDS011;3042;43.194;27.646;2022-11-23T01:46:51;419.97;;;118.77;;
6027;SDS011;3042;43.194;27.646;2022-11-23T01:49:18;264.10;;;100.40;;
6027;SDS011;3042;43.194;27.646;2022-11-23T01:51:47;176.70;;;103.30;;
6027;SDS011;3042;43.194;27.646;2022-11-23T01:54:20;99.37;;;89.23;;
6027;SDS011;3042;43.194;27.646;2022-11-23T01:56:53;111.47;;;97.33;;
6027;SDS011;3042;43.194;27.646;2022-11-23T01:59:24;129.90;;;99.43;;
6027;SDS011;3042;43.194;27.646;2022-11-23T02:01:53;307.87;;;108.60;;
6027;SDS011;3042;43.194;27.646;2022-11-23T02:04:21;220.17;;;95.27;;
6027;SDS011;3042;43.194;27.646;2022-11-23T02:06:53;391.60;;;117.40;;
6027;SDS011;3042;43.194;27.646;2022-11-23T02:09:22;180.03;;;89.50;;
6027;SDS011;3042;43.194;27.646;2022-11-23T02:11:51;225.83;;;102.50;;
6027;SDS011;3042;43.194;27.646;2022-11-23T02:14:19;128.80;;;101.53;;
6027;SDS011;3042;43.194;27.646;2022-11-23T02:16:47;102.07;;;94.17;;
6027;SDS011;3042;43.194;27.646;2022-11-23T02:19:19;98.40;;;88.50;;
6027;SDS011;3042;43.194;27.646;2022-11-23T02:22:03;104.20;;;94.43;;
6027;SDS011;3042;43.194;27.646;2022-11-23T02:24:38;365.03;;;127.00;;
6027;SDS011;3042;43.194;27.646;2022-11-23T02:27:15;158.03;;;96.50;;
6027;SDS011;3042;43.194;27.646;2022-11-23T02:29:45;190.73;;;97.07;;
6027;SDS011;3042;43.194;27.646;2022-11-23T02:32:17;210.20;;;100.80;;
6027;SDS011;3042;43.194;27.646;2022-11-23T02:34:49;305.30;;;114.70;;
6027;SDS011;3042;43.194;27.646;2022-11-23T02:37:18;286.30;;;112.33;;
6027;SDS011;3042;43.194;27.646;2022-11-23T02:39:51;235.23;;;98.17;;
6027;SDS011;3042;43.194;27.646;2022-11-23T02:42:28;272.30;;;111.30;;
6027;SDS011;3042;43.194;27.646;2022-11-23T02:44:58;266.07;;;109.23;;
6027;SDS011;3042;43.194;27.646;2022-11-23T02:47:32;182.87;;;100.83;;
6027;SDS011;3042;43.194;27.646;2022-11-23T02:49:59;144.53;;;91.90;;
6027;SDS011;3042;43.194;27.646;2022-11-23T02:52:26;93.33;;;85.40;;
6027;SDS011;3042;43.194;27.646;2022-11-23T02:54:56;80.10;;;72.17;;
6027;SDS011;3042;43.194;27.646;2022-11-23T02:57:40;78.70;;;70.87;;
6027;SDS011;3042;43.194;27.646;2022-11-23T03:00:15;97.03;;;69.70;;
6027;SDS011;3042;43.194;27.646;2022-11-23T03:02:43;139.87;;;68.03;;
6027;SDS011;3042;43.194;27.646;2022-11-23T03:05:11;102.17;;;64.20;;
6027;SDS011;3042;43.194;27.646;2022-11-23T03:07:39;113.17;;;70.10;;
6027;SDS011;3042;43.194;27.646;2022-11-23T03:10:07;67.13;;;62.60;;
6027;SDS011;3042;43.194;27.646;2022-11-23T03:12:38;205.73;;;76.17;;
6027;SDS011;3042;43.194;27.646;2022-11-23T03:15:05;66.00;;;60.30;;
6027;SDS011;3042;43.194;27.646;2022-11-23T03:17:34;77.27;;;64.30;;
6027;SDS011;3042;43.194;27.646;2022-11-23T03:20:01;70.00;;;61.80;;
6027;SDS011;3042;43.194;27.646;2022-11-23T03:22:29;70.30;;;61.97;;
6027;SDS011;3042;43.194;27.646;2022-11-23T03:24:56;67.80;;;61.17;;
6027;SDS011;3042;43.194;27.646;2022-11-23T03:27:24;143.40;;;63.90;;
6027;SDS011;3042;43.194;27.646;2022-11-23T03:29:52;106.83;;;67.20;;
6027;SDS011;3042;43.194;27.646;2022-11-23T03:32:21;106.80;;;72.97;;
6027;SDS011;3042;43.194;27.646;2022-11-23T03:34:52;90.20;;;72.50;;
6027;SDS011;3042;43.194;27.646;2022-11-23T03:37:19;88.93;;;56.83;;
6027;SDS011;3042;43.194;27.646;2022-11-23T03:39:47;132.83;;;63.67;;
6027;SDS011;3042;43.194;27.646;2022-11-23T03:42:15;95.03;;;65.97;;
6027;SDS011;3042;43.194;27.646;2022-11-23T03:44:42;122.07;;;67.60;;
6027;SDS011;3042;43.194;27.646;2022-11-23T03:47:14;83.27;;;69.47;;
6027;SDS011;3042;43.194;27.646;2022-11-23T03:49:42;102.23;;;70.80;;
6027;SDS011;3042;43.194;27.646;2022-11-23T03:52:11;66.27;;;60.27;;
6027;SDS011;3042;43.194;27.646;2022-11-23T03:54:40;85.73;;;60.63;;
6027;SDS011;3042;43.194;27.646;2022-11-23T03:57:11;64.30;;;58.80;;
6027;SDS011;3042;43.194;27.646;2022-11-23T03:59:40;70.97;;;64.90;;
6027;SDS011;3042;43.194;27.646;2022-11-23T04:02:11;69.90;;;63.33;;
6027;SDS011;3042;43.194;27.646;2022-11-23T04:04:44;71.40;;;65.90;;
6027;SDS011;3042;43.194;27.646;2022-11-23T04:07:16;65.03;;;60.20;;
6027;SDS011;3042;43.194;27.646;2022-11-23T04:09:47;82.73;;;71.40;;
6027;SDS011;3042;43.194;27.646;2022-11-23T04:12:20;69.63;;;63.27;;
6027;SDS011;3042;43.194;27.646;2022-11-23T04:14:52;93.53;;;71.20;;
6027;SDS011;3042;43.194;27.646;2022-11-23T04:17:26;103.20;;;93.63;;
6027;SDS011;3042;43.194;27.646;2022-11-23T04:19:54;119.27;;;107.67;;
6027;SDS011;3042;43.194;27.646;2022-11-23T04:22:22;123.27;;;111.73;;
6027;SDS011;3042;43.194;27.646;2022-11-23T04:24:49;116.33;;;106.73;;
6027;SDS011;3042;43.194;27.646;2022-11-23T04:27:16;102.07;;;94.17;;
6027;SDS011;3042;43.194;27.646;2022-11-23T04:29:43;89.87;;;82.67;;
6027;SDS011;3042;43.194;27.646;2022-11-23T04:32:10;91.27;;;83.23;;
6027;SDS011;3042;43.194;27.646;2022-11-23T04:34:39;95.77;;;87.77;;
6027;SDS011;3042;43.194;27.646;2022-11-23T04:37:06;87.23;;;80.77;;
6027;SDS011;3042;43.194;27.646;2022-11-23T04:39:34;98.30;;;89.87;;
6027;SDS011;3042;43.194;27.646;2022-11-23T04:42:01;100.47;;;92.60;;
6027;SDS011;3042;43.194;27.646;2022-11-23T04:44:28;84.27;;;78.07;;
6027;SDS011;3042;43.194;27.646;2022-11-23T04:46:55;93.13;;;85.27;;
6027;SDS011;3042;43.194;27.646;2022-11-23T04:49:22;92.60;;;84.05;;
6027;SDS011;3042;43.194;27.646;2022-11-23T04:51:51;85.67;;;76.57;;
6027;SDS011;3042;43.194;27.646;2022-11-23T04:54:18;79.60;;;73.60;;
6027;SDS011;3042;43.194;27.646;2022-11-23T04:56:46;92.37;;;83.13;;
6027;SDS011;3042;43.194;27.646;2022-11-23T04:59:13;78.00;;;71.83;;
6027;SDS011;3042;43.194;27.646;2022-11-23T05:01:51;84.53;;;78.07;;
6027;SDS011;3042;43.194;27.646;2022-11-23T05:04:18;85.40;;;78.73;;
6027;SDS011;3042;43.194;27.646;2022-11-23T05:06:45;89.43;;;82.33;;
6027;SDS011;3042;43.194;27.646;2022-11-23T05:09:16;82.40;;;76.07;;
6027;SDS011;3042;43.194;27.646;2022-11-23T05:11:43;80.60;;;73.83;;
6027;SDS011;3042;43.194;27.646;2022-11-23T05:14:11;85.07;;;77.43;;
6027;SDS011;3042;43.194;27.646;2022-11-23T05:16:38;84.27;;;76.70;;
6027;SDS011;3042;43.194;27.646;2022-11-23T05:19:05;77.77;;;71.47;;
6027;SDS011;3042;43.194;27.646;2022-11-23T05:21:33;94.57;;;86.87;;
6027;SDS011;3042;43.194;27.646;2022-11-23T05:24:00;81.27;;;75.07;;
6027;SDS011;3042;43.194;27.646;2022-11-23T05:26:28;82.07;;;74.67;;
6027;SDS011;3042;43.194;27.646;2022-11-23T05:28:56;73.03;;;67.40;;
6027;SDS011;3042;43.194;27.646;2022-11-23T05:31:23;88.83;;;82.33;;
6027;SDS011;3042;43.194;27.646;2022-11-23T05:33:50;75.23;;;69.57;;
6027;SDS011;3042;43.194;27.646;2022-11-23T05:36:17;83.20;;;76.60;;
6027;SDS011;3042;43.194;27.646;2022-11-23T05:38:44;90.87;;;83.37;;
6027;SDS011;3042;43.194;27.646;2022-11-23T05:41:11;92.00;;;84.87;;
6027;SDS011;3042;43.194;27.646;2022-11-23T05:43:41;97.83;;;89.87;;
6027;SDS011;3042;43.194;27.646;2022-11-23T05:46:08;103.33;;;94.80;;
6027;SDS011;3042;43.194;27.646;2022-11-23T05:48:36;93.97;;;86.47;;
6027;SDS011;3042;43.194;27.646;2022-11-23T05:51:04;101.73;;;93.20;;
6027;SDS011;3042;43.194;27.646;2022-11-23T05:53:32;102.33;;;93.87;;
6027;SDS011;3042;43.194;27.646;2022-11-23T05:55:59;109.67;;;101.53;;
6027;SDS011;3042;43.194;27.646;2022-11-23T05:58:27;101.17;;;92.83;;
6027;SDS011;3042;43.194;27.646;2022-11-23T06:00:57;117.40;;;108.90;;
6027;SDS011;3042;43.194;27.646;2022-11-23T06:03:25;126.07;;;116.63;;
6027;SDS011;3042;43.194;27.646;2022-11-23T06:05:53;138.03;;;129.33;;
6027;SDS011;3042;43.194;27.646;2022-11-23T06:08:20;141.93;;;133.50;;
6027;SDS011;3042;43.194;27.646;2022-11-23T06:10:47;230.80;;;143.37;;
6027;SDS011;3042;43.194;27.646;2022-11-23T06:13:14;171.33;;;153.37;;
6027;SDS011;3042;43.194;27.646;2022-11-23T06:15:42;226.00;;;145.80;;
6027;SDS011;3042;43.194;27.646;2022-11-23T06:18:10;317.60;;;193.47;;
6027;SDS011;3042;43.194;27.646;2022-11-23T06:20:37;185.50;;;165.60;;
6027;SDS011;3042;43.194;27.646;2022-11-23T06:23:05;217.93;;;153.80;;
6027;SDS011;3042;43.194;27.646;2022-11-23T06:25:32;192.70;;;161.47;;
6027;SDS011;3042;43.194;27.646;2022-11-23T06:27:59;222.57;;;189.30;;
6027;SDS011;3042;43.194;27.646;2022-11-23T06:30:27;178.37;;;130.83;;
6027;SDS011;3042;43.194;27.646;2022-11-23T06:32:55;136.43;;;123.03;;
6027;SDS011;3042;43.194;27.646;2022-11-23T06:35:24;132.83;;;121.53;;
6027;SDS011;3042;43.194;27.646;2022-11-23T06:37:51;133.80;;;123.60;;
6027;SDS011;3042;43.194;27.646;2022-11-23T06:40:19;127.93;;;116.77;;
6027;SDS011;3042;43.194;27.646;2022-11-23T06:42:46;147.00;;;135.70;;
6027;SDS011;3042;43.194;27.646;2022-11-23T06:45:14;126.30;;;118.53;;
6027;SDS011;3042;43.194;27.646;2022-11-23T06:47:41;120.70;;;112.70;;
6027;SDS011;3042;43.194;27.646;2022-11-23T06:50:09;107.73;;;99.30;;
6027;SDS011;3042;43.194;27.646;2022-11-23T06:52:40;112.40;;;104.40;;
6027;SDS011;3042;43.194;27.646;2022-11-23T06:55:07;121.57;;;113.40;;
6027;SDS011;3042;43.194;27.646;2022-11-23T06:57:34;110.10;;;101.83;;
6027;SDS011;3042;43.194;27.646;2022-11-23T07:00:02;112.67;;;104.73;;
6027;SDS011;3042;43.194;27.646;2022-11-23T07:02:30;114.53;;;106.07;;
6027;SDS011;3042;43.194;27.646;2022-11-23T07:04:57;140.53;;;127.37;;
6027;SDS011;3042;43.194;27.646;2022-11-23T07:07:24;130.03;;;119.10;;
6027;SDS011;3042;43.194;27.646;2022-11-23T07:09:54;164.50;;;148.60;;
6027;SDS011;3042;43.194;27.646;2022-11-23T07:12:21;138.87;;;127.87;;
6027;SDS011;3042;43.194;27.646;2022-11-23T07:14:48;119.00;;;109.30;;
6027;SDS011;3042;43.194;27.646;2022-11-23T07:17:15;101.87;;;95.00;;
6027;SDS011;3042;43.194;27.646;2022-11-23T07:19:42;138.73;;;121.13;;
6027;SDS011;3042;43.194;27.646;2022-11-23T07:22:10;120.90;;;109.40;;
6027;SDS011;3042;43.194;27.646;2022-11-23T07:24:48;109.27;;;99.60;;
6027;SDS011;3042;43.194;27.646;2022-11-23T07:27:17;99.63;;;91.73;;
6027;SDS011;3042;43.194;27.646;2022-11-23T07:29:44;98.70;;;90.30;;
6027;SDS011;3042;43.194;27.646;2022-11-23T07:32:11;93.93;;;85.93;;
6027;SDS011;3042;43.194;27.646;2022-11-23T07:34:39;100.70;;;90.30;;
6027;SDS011;3042;43.194;27.646;2022-11-23T07:37:07;92.43;;;84.10;;
6027;SDS011;3042;43.194;27.646;2022-11-23T07:39:34;106.10;;;95.17;;
6027;SDS011;3042;43.194;27.646;2022-11-23T07:42:01;93.00;;;85.40;;
6027;SDS011;3042;43.194;27.646;2022-11-23T07:44:30;90.50;;;81.27;;
6027;SDS011;3042;43.194;27.646;2022-11-23T07:46:57;89.53;;;83.00;;
6027;SDS011;3042;43.194;27.646;2022-11-23T07:49:24;101.27;;;93.30;;
6027;SDS011;3042;43.194;27.646;2022-11-23T07:51:52;99.87;;;92.33;;
6027;SDS011;3042;43.194;27.646;2022-11-23T07:54:20;87.20;;;80.13;;
6027;SDS011;3042;43.194;27.646;2022-11-23T07:56:47;89.03;;;82.20;;
6027;SDS011;3042;43.194;27.646;2022-11-23T07:59:14;99.03;;;90.97;;
6027;SDS011;3042;43.194;27.646;2022-11-23T08:01:43;97.73;;;90.33;;
6027;SDS011;3042;43.194;27.646;2022-11-23T08:04:10;99.87;;;91.17;;
6027;SDS011;3042;43.194;27.646;2022-11-23T08:06:37;98.77;;;91.50;;
6027;SDS011;3042;43.194;27.646;2022-11-23T08:09:05;106.63;;;99.53;;
6027;SDS011;3042;43.194;27.646;2022-11-23T08:11:32;108.30;;;100.30;;
6027;SDS011;3042;43.194;27.646;2022-11-23T08:13:59;111.87;;;104.87;;
6027;SDS011;3042;43.194;27.646;2022-11-23T08:16:26;103.07;;;95.90;;
6027;SDS011;3042;43.194;27.646;2022-11-23T08:18:56;104.87;;;97.97;;
6027;SDS011;3042;43.194;27.646;2022-11-23T08:21:23;90.13;;;82.80;;
6027;SDS011;3042;43.194;27.646;2022-11-23T08:23:50;98.20;;;90.80;;
6027;SDS011;3042;43.194;27.646;2022-11-23T08:26:18;119.67;;;111.47;;
6027;SDS011;3042;43.194;27.646;2022-11-23T08:28:45;105.70;;;97.90;;
6027;SDS011;3042;43.194;27.646;2022-11-23T08:31:12;99.77;;;91.90;;
6027;SDS011;3042;43.194;27.646;2022-11-23T08:33:40;92.10;;;85.30;;
6027;SDS011;3042;43.194;27.646;2022-11-23T08:36:09;104.23;;;96.53;;
6027;SDS011;3042;43.194;27.646;2022-11-23T08:38:36;93.93;;;87.23;;
6027;SDS011;3042;43.194;27.646;2022-11-23T08:41:03;92.43;;;84.70;;
6027;SDS011;3042;43.194;27.646;2022-11-23T08:43:31;100.97;;;93.53;;
6027;SDS011;3042;43.194;27.646;2022-11-23T08:46:00;85.40;;;78.50;;
6027;SDS011;3042;43.194;27.646;2022-11-23T08:48:27;98.37;;;91.00;;
6027;SDS011;3042;43.194;27.646;2022-11-23T08:50:56;112.60;;;103.80;;
6027;SDS011;3042;43.194;27.646;2022-11-23T08:53:26;111.00;;;102.90;;
6027;SDS011;3042;43.194;27.646;2022-11-23T08:55:53;140.40;;;128.53;;
6027;SDS011;3042;43.194;27.646;2022-11-23T08:58:20;137.57;;;127.37;;
6027;SDS011;3042;43.194;27.646;2022-11-23T09:00:48;131.90;;;122.70;;
6027;SDS011;3042;43.194;27.646;2022-11-23T09:03:15;132.60;;;122.70;;
6027;SDS011;3042;43.194;27.646;2022-11-23T09:05:42;148.30;;;138.00;;
6027;SDS011;3042;43.194;27.646;2022-11-23T09:08:09;132.93;;;124.83;;
6027;SDS011;3042;43.194;27.646;2022-11-23T09:10:38;125.63;;;119.10;;
6027;SDS011;3042;43.194;27.646;2022-11-23T09:13:06;124.77;;;117.70;;
6027;SDS011;3042;43.194;27.646;2022-11-23T09:15:33;131.03;;;122.33;;
6027;SDS011;3042;43.194;27.646;2022-11-23T09:18:01;132.90;;;124.90;;
6027;SDS011;3042;43.194;27.646;2022-11-23T09:20:28;124.63;;;116.87;;
6027;SDS011;3042;43.194;27.646;2022-11-23T09:22:55;138.63;;;129.90;;
6027;SDS011;3042;43.194;27.646;2022-11-23T09:25:22;134.30;;;125.40;;
6027;SDS011;3042;43.194;27.646;2022-11-23T09:27:56;137.10;;;127.63;;
6027;SDS011;3042;43.194;27.646;2022-11-23T09:30:24;195.83;;;177.33;;
6027;SDS011;3042;43.194;27.646;2022-11-23T09:32:53;161.87;;;147.93;;
6027;SDS011;3042;43.194;27.646;2022-11-23T09:35:21;133.53;;;122.83;;
6027;SDS011;3042;43.194;27.646;2022-11-23T09:37:53;167.67;;;155.30;;
6027;SDS011;3042;43.194;27.646;2022-11-23T09:40:21;159.80;;;148.80;;
6027;SDS011;3042;43.194;27.646;2022-11-23T09:42:51;149.27;;;137.60;;
6027;SDS011;3042;43.194;27.646;2022-11-23T09:45:33;145.40;;;136.10;;
6027;SDS011;3042;43.194;27.646;2022-11-23T09:48:21;148.40;;;138.10;;
6027;SDS011;3042;43.194;27.646;2022-11-23T09:50:58;240.53;;;151.60;;
6027;SDS011;3042;43.194;27.646;2022-11-23T09:53:32;179.57;;;138.50;;
6027;SDS011;3042;43.194;27.646;2022-11-23T09:56:02;385.20;;;153.40;;
6027;SDS011;3042;43.194;27.646;2022-11-23T09:58:32;157.43;;;146.00;;
6027;SDS011;3042;43.194;27.646;2022-11-23T10:01:06;156.43;;;144.37;;
6027;SDS011;3042;43.194;27.646;2022-11-23T10:03:38;142.87;;;134.43;;
6027;SDS011;3042;43.194;27.646;2022-11-23T10:06:11;140.70;;;132.97;;
6027;SDS011;3042;43.194;27.646;2022-11-23T10:08:45;140.93;;;132.53;;
6027;SDS011;3042;43.194;27.646;2022-11-23T10:11:30;153.97;;;144.73;;
6027;SDS011;3042;43.194;27.646;2022-11-23T10:14:21;131.33;;;124.17;;
6027;SDS011;3042;43.194;27.646;2022-11-23T10:17:00;146.47;;;138.03;;
6027;SDS011;3042;43.194;27.646;2022-11-23T10:19:38;126.03;;;119.47;;
6027;SDS011;3042;43.194;27.646;2022-11-23T10:22:20;132.60;;;124.50;;
6027;SDS011;3042;43.194;27.646;2022-11-23T10:24:52;122.33;;;116.03;;
6027;SDS011;3042;43.194;27.646;2022-11-23T10:27:20;136.70;;;129.10;;
6027;SDS011;3042;43.194;27.646;2022-11-23T10:29:51;129.60;;;122.50;;
6027;SDS011;3042;43.194;27.646;2022-11-23T10:32:24;135.80;;;128.27;;
6027;SDS011;3042;43.194;27.646;2022-11-23T10:34:58;137.73;;;129.47;;
6027;SDS011;3042;43.194;27.646;2022-11-23T10:37:31;140.37;;;132.57;;
6027;SDS011;3042;43.194;27.646;2022-11-23T10:39:59;145.30;;;136.53;;
6027;SDS011;3042;43.194;27.646;2022-11-23T10:42:28;126.47;;;119.40;;
6027;SDS011;3042;43.194;27.646;2022-11-23T10:44:59;135.57;;;128.63;;
6027;SDS011;3042;43.194;27.646;2022-11-23T10:47:33;132.10;;;124.57;;
6027;SDS011;3042;43.194;27.646;2022-11-23T10:50:10;124.10;;;118.30;;
6027;SDS011;3042;43.194;27.646;2022-11-23T10:52:51;139.70;;;132.60;;
6027;SDS011;3042;43.194;27.646;2022-11-23T10:55:21;143.13;;;135.50;;
6027;SDS011;3042;43.194;27.646;2022-11-23T10:57:52;120.83;;;114.90;;
6027;SDS011;3042;43.194;27.646;2022-11-23T11:00:24;119.83;;;114.07;;
6027;SDS011;3042;43.194;27.646;2022-11-23T11:02:57;115.50;;;110.13;;
6027;SDS011;3042;43.194;27.646;2022-11-23T11:05:29;125.57;;;119.43;;
6027;SDS011;3042;43.194;27.646;2022-11-23T11:07:58;121.07;;;115.20;;
6027;SDS011;3042;43.194;27.646;2022-11-23T11:10:33;123.07;;;116.70;;
6027;SDS011;3042;43.194;27.646;2022-11-23T11:13:19;124.50;;;118.07;;
6027;SDS011;3042;43.194;27.646;2022-11-23T11:15:53;126.50;;;120.00;;
6027;SDS011;3042;43.194;27.646;2022-11-23T11:18:23;145.47;;;136.73;;
6027;SDS011;3042;43.194;27.646;2022-11-23T11:20:57;147.83;;;138.80;;
6027;SDS011;3042;43.194;27.646;2022-11-23T11:23:27;119.10;;;113.40;;
6027;SDS011;3042;43.194;27.646;2022-11-23T11:26:06;123.07;;;116.50;;
6027;SDS011;3042;43.194;27.646;2022-11-23T11:28:40;121.67;;;114.70;;
6027;SDS011;3042;43.194;27.646;2022-11-23T11:31:23;125.57;;;118.33;;
6027;SDS011;3042;43.194;27.646;2022-11-23T11:34:09;167.57;;;157.47;;
6027;SDS011;3042;43.194;27.646;2022-11-23T11:36:45;120.03;;;113.53;;
6027;SDS011;3042;43.194;27.646;2022-11-23T11:39:19;117.50;;;111.53;;
6027;SDS011;3042;43.194;27.646;2022-11-23T11:41:51;106.97;;;101.70;;
6027;SDS011;3042;43.194;27.646;2022-11-23T11:44:22;109.47;;;104.30;;
6027;SDS011;3042;43.194;27.646;2022-11-23T11:46:55;119.53;;;113.60;;
6027;SDS011;3042;43.194;27.646;2022-11-23T11:49:27;113.87;;;107.30;;
6027;SDS011;3042;43.194;27.646;2022-11-23T11:52:02;124.90;;;118.30;;
6027;SDS011;3042;43.194;27.646;2022-11-23T11:54:35;113.63;;;108.13;;
6027;SDS011;3042;43.194;27.646;2022-11-23T11:57:12;126.03;;;119.63;;
6027;SDS011;3042;43.194;27.646;2022-11-23T11:59:46;121.47;;;115.40;;
6027;SDS011;3042;43.194;27.646;2022-11-23T12:02:23;111.37;;;106.07;;
6027;SDS011;3042;43.194;27.646;2022-11-23T12:04:55;107.13;;;102.03;;
6027;SDS011;3042;43.194;27.646;2022-11-23T12:07:28;121.27;;;115.30;;
6027;SDS011;3042;43.194;27.646;2022-11-23T12:10:00;109.97;;;104.87;;
6027;SDS011;3042;43.194;27.646;2022-11-23T12:12:37;115.40;;;109.67;;
6027;SDS011;3042;43.194;27.646;2022-11-23T12:15:08;121.63;;;115.63;;
6027;SDS011;3042;43.194;27.646;2022-11-23T12:21:04;112.87;;;107.27;;
6027;SDS011;3042;43.194;27.646;2022-11-23T12:23:45;110.73;;;105.57;;
6027;SDS011;3042;43.194;27.646;2022-11-23T12:26:19;112.47;;;106.97;;
6027;SDS011;3042;43.194;27.646;2022-11-23T12:29:00;118.40;;;112.20;;
6027;SDS011;3042;43.194;27.646;2022-11-23T12:31:47;141.30;;;133.30;;
6027;SDS011;3042;43.194;27.646;2022-11-23T12:34:24;122.17;;;115.73;;
6027;SDS011;3042;43.194;27.646;2022-11-23T12:37:06;124.00;;;117.90;;
6027;SDS011;3042;43.194;27.646;2022-11-23T12:39:47;106.57;;;101.27;;
6027;SDS011;3042;43.194;27.646;2022-11-23T12:42:34;129.47;;;123.03;;
6027;SDS011;3042;43.194;27.646;2022-11-23T12:45:18;128.00;;;121.40;;
6027;SDS011;3042;43.194;27.646;2022-11-23T12:47:58;118.43;;;112.93;;
6027;SDS011;3042;43.194;27.646;2022-11-23T12:50:34;126.53;;;120.07;;
6027;SDS011;3042;43.194;27.646;2022-11-23T12:53:16;134.00;;;127.13;;
6027;SDS011;3042;43.194;27.646;2022-11-23T12:56:02;113.63;;;108.03;;
6027;SDS011;3042;43.194;27.646;2022-11-23T12:58:37;122.73;;;116.57;;
6027;SDS011;3042;43.194;27.646;2022-11-23T13:01:09;115.43;;;109.50;;
6027;SDS011;3042;43.194;27.646;2022-11-23T13:09:50;114.83;;;108.93;;
6027;SDS011;3042;43.194;27.646;2022-11-23T13:12:32;116.63;;;110.83;;
6027;SDS011;3042;43.194;27.646;2022-11-23T13:15:19;117.30;;;111.07;;
6027;SDS011;3042;43.194;27.646;2022-11-23T13:18:03;116.67;;;110.47;;
6027;SDS011;3042;43.194;27.646;2022-11-23T13:20:56;124.17;;;116.83;;
6027;SDS011;3042;43.194;27.646;2022-11-23T13:23:33;119.73;;;113.43;;
6027;SDS011;3042;43.194;27.646;2022-11-23T13:26:14;118.17;;;112.23;;
6027;SDS011;3042;43.194;27.646;2022-11-23T13:28:43;113.23;;;107.70;;
6027;SDS011;3042;43.194;27.646;2022-11-23T13:31:24;118.80;;;111.50;;
6027;SDS011;3042;43.194;27.646;2022-11-23T13:33:53;112.57;;;106.20;;
6027;SDS011;3042;43.194;27.646;2022-11-23T13:42:26;120.53;;;114.43;;
6027;SDS011;3042;43.194;27.646;2022-11-23T13:45:13;120.53;;;113.67;;
6027;SDS011;3042;43.194;27.646;2022-11-23T13:48:11;119.80;;;113.53;;
6027;SDS011;3042;43.194;27.646;2022-11-23T13:50:55;122.53;;;116.50;;
6027;SDS011;3042;43.194;27.646;2022-11-23T13:53:25;113.73;;;107.13;;
6027;SDS011;3042;43.194;27.646;2022-11-23T13:55:56;110.33;;;104.70;;
6027;SDS011;3042;43.194;27.646;2022-11-23T13:58:50;118.10;;;112.20;;
6027;SDS011;3042;43.194;27.646;2022-11-23T14:04:25;107.13;;;101.50;;
6027;SDS011;3042;43.194;27.646;2022-11-23T14:06:53;115.20;;;109.50;;
6027;SDS011;3042;43.194;27.646;2022-11-23T14:09:24;118.67;;;112.60;;
6027;SDS011;3042;43.194;27.646;2022-11-23T14:12:03;111.63;;;105.93;;
6027;SDS011;3042;43.194;27.646;2022-11-23T14:14:45;115.47;;;109.50;;
6027;SDS011;3042;43.194;27.646;2022-11-23T14:17:25;105.67;;;100.13;;
6027;SDS011;3042;43.194;27.646;2022-11-23T14:20:25;113.50;;;107.57;;
6027;SDS011;3042;43.194;27.646;2022-11-23T14:23:05;114.13;;;108.23;;
6027;SDS011;3042;43.194;27.646;2022-11-23T14:25:57;111.13;;;105.20;;
6027;SDS011;3042;43.194;27.646;2022-11-23T14:28:40;116.33;;;110.30;;
6027;SDS011;3042;43.194;27.646;2022-11-23T14:31:20;116.60;;;110.60;;
6027;SDS011;3042;43.194;27.646;2022-11-23T14:33:58;109.20;;;103.40;;
6027;SDS011;3042;43.194;27.646;2022-11-23T14:36:33;126.27;;;119.83;;
6027;SDS011;3042;43.194;27.646;2022-11-23T14:39:18;113.47;;;106.87;;
6027;SDS011;3042;43.194;27.646;2022-11-23T14:42:09;114.90;;;109.00;;
6027;SDS011;3042;43.194;27.646;2022-11-23T14:44:39;120.67;;;114.57;;
6027;SDS011;3042;43.194;27.646;2022-11-23T14:47:09;109.70;;;104.00;;
6027;SDS011;3042;43.194;27.646;2022-11-23T14:49:46;116.00;;;109.53;;
6027;SDS011;3042;43.194;27.646;2022-11-23T14:52:15;116.57;;;110.97;;
6027;SDS011;3042;43.194;27.646;2022-11-23T14:54:45;114.70;;;108.73;;
6027;SDS011;3042;43.194;27.646;2022-11-23T14:57:15;110.40;;;104.90;;
6027;SDS011;3042;43.194;27.646;2022-11-23T14:59:45;119.93;;;113.60;;
6027;SDS011;3042;43.194;27.646;2022-11-23T15:02:17;105.47;;;100.23;;